Dripping Springs' Hourly Summary for Wednesday, May 9, 2018
Hour Temp
(f)
RH
(%)
Solar Rad.
(MJ/m2)
Rainfall
(in)
Wind
(mph)
5/9/2018 12:00 AM 71 54 0 0 7.14
5/9/2018 1:00 AM 69 65 0 0 6.18
5/9/2018 2:00 AM 67 77 0 0 7.43
5/9/2018 3:00 AM 66 88 0 0 7.43
5/9/2018 4:00 AM 66 88 0 0 7
5/9/2018 5:00 AM 66 88 0 0 5.84
5/9/2018 6:00 AM 66 88 0.01 0 6.24
5/9/2018 7:00 AM 67 87 0.13 0 8
5/9/2018 8:00 AM 68 84 0.78 0 8.09
5/9/2018 9:00 AM 70 79 1.25 0 8.34
5/9/2018 10:00 AM 73 69 2.5 0 8.34
5/9/2018 11:00 AM 76 60 3 0 8.04
5/9/2018 12:00 PM 78 53 3.35 0 7.91
5/9/2018 1:00 PM 80 44 3.46 0 8.42
5/9/2018 2:00 PM 81 41 3.46 0 8.42
5/9/2018 3:00 PM 83 40 3.33 0 8.26
5/9/2018 4:00 PM 83 38 2.59 0 7.83
5/9/2018 5:00 PM 83 37 1.85 0 7.59
5/9/2018 6:00 PM 83 38 1.81 0 7.38
5/9/2018 7:00 PM 83 38 0.44 0 6.94
5/9/2018 8:00 PM 81 38 0.31 0 6.35
5/9/2018 9:00 PM 78 42 0.02 0 4.41
5/9/2018 10:00 PM 74 51 0 0 5.09
5/9/2018 11:00 PM 72 58 0 0 5.78
Data Summary 74 60 28.29 0.00 7.19